sensor_id;sensor_type;location;lat;lon;timestamp;pressure;altitude;pressure_sealevel;temperature;humidity
32081;BME280;18593;51.426;7.030;2023-01-08T00:00:07;99482.00;;;11.32;65.27
32081;BME280;18593;51.426;7.030;2023-01-08T00:02:40;99486.38;;;11.39;65.56
32081;BME280;18593;51.426;7.030;2023-01-08T00:05:08;99475.63;;;11.33;64.91
32081;BME280;18593;51.426;7.030;2023-01-08T00:07:36;99480.72;;;11.35;65.25
32081;BME280;18593;51.426;7.030;2023-01-08T00:10:04;99472.22;;;11.38;65.10
32081;BME280;18593;51.426;7.030;2023-01-08T00:12:33;99468.75;;;11.38;64.77
32081;BME280;18593;51.426;7.030;2023-01-08T00:15:00;99466.56;;;11.34;64.76
32081;BME280;18593;51.426;7.030;2023-01-08T00:17:27;99466.56;;;11.34;64.29
32081;BME280;18593;51.426;7.030;2023-01-08T00:19:54;99461.47;;;11.33;64.71
32081;BME280;18593;51.426;7.030;2023-01-08T00:22:22;99472.13;;;11.33;64.66
32081;BME280;18593;51.426;7.030;2023-01-08T00:24:49;99463.88;;;11.34;64.92
32081;BME280;18593;51.426;7.030;2023-01-08T00:27:16;99459.94;;;11.37;64.62
32081;BME280;18593;51.426;7.030;2023-01-08T00:29:47;99455.88;;;11.34;64.89
32081;BME280;18593;51.426;7.030;2023-01-08T00:32:14;99444.94;;;11.36;64.73
32081;BME280;18593;51.426;7.030;2023-01-08T00:34:41;99449.81;;;11.39;65.11
32081;BME280;18593;51.426;7.030;2023-01-08T00:37:08;99442.34;;;11.41;65.01
32081;BME280;18593;51.426;7.030;2023-01-08T00:39:35;99444.47;;;11.39;64.69
32081;BME280;18593;51.426;7.030;2023-01-08T00:42:02;99446.91;;;11.41;64.96
32081;BME280;18593;51.426;7.030;2023-01-08T00:44:30;99446.91;;;11.41;65.24
32081;BME280;18593;51.426;7.030;2023-01-08T00:47:01;99445.03;;;11.41;64.60
32081;BME280;18593;51.426;7.030;2023-01-08T00:49:28;99446.34;;;11.39;65.00
32081;BME280;18593;51.426;7.030;2023-01-08T00:51:56;99449.00;;;11.39;65.14
32081;BME280;18593;51.426;7.030;2023-01-08T00:54:23;99442.06;;;11.38;64.89
32081;BME280;18593;51.426;7.030;2023-01-08T00:56:50;99439.31;;;11.32;64.81
32081;BME280;18593;51.426;7.030;2023-01-08T00:59:17;99439.84;;;11.34;64.72
32081;BME280;18593;51.426;7.030;2023-01-08T01:01:45;99433.72;;;11.34;65.09
32081;BME280;18593;51.426;7.030;2023-01-08T01:04:13;99429.44;;;11.33;65.11
32081;BME280;18593;51.426;7.030;2023-01-08T01:06:40;99428.13;;;11.35;65.00
32081;BME280;18593;51.426;7.030;2023-01-08T01:09:08;99429.25;;;11.40;64.98
32081;BME280;18593;51.426;7.030;2023-01-08T01:11:35;99426.84;;;11.38;64.82
32081;BME280;18593;51.426;7.030;2023-01-08T01:14:02;99423.91;;;11.40;64.76
32081;BME280;18593;51.426;7.030;2023-01-08T01:16:29;99415.09;;;11.39;64.78
32081;BME280;18593;51.426;7.030;2023-01-08T01:18:56;99418.03;;;11.38;65.22
32081;BME280;18593;51.426;7.030;2023-01-08T01:21:27;99430.41;;;11.44;65.18
32081;BME280;18593;51.426;7.030;2023-01-08T01:23:57;99440.03;;;11.45;65.25
32081;BME280;18593;51.426;7.030;2023-01-08T01:26:26;99429.34;;;11.45;65.11
32081;BME280;18593;51.426;7.030;2023-01-08T01:28:55;99416.25;;;11.43;65.44
32081;BME280;18593;51.426;7.030;2023-01-08T01:31:24;99412.25;;;11.46;65.37
32081;BME280;18593;51.426;7.030;2023-01-08T01:33:51;99421.59;;;11.43;65.30
32081;BME280;18593;51.426;7.030;2023-01-08T01:36:21;99424.25;;;11.43;65.06
32081;BME280;18593;51.426;7.030;2023-01-08T01:38:51;99421.81;;;11.42;64.99
32081;BME280;18593;51.426;7.030;2023-01-08T01:41:25;99419.72;;;11.44;65.47
32081;BME280;18593;51.426;7.030;2023-01-08T01:43:54;99415.66;;;11.41;65.50
32081;BME280;18593;51.426;7.030;2023-01-08T01:46:35;99424.72;;;11.40;65.42
32081;BME280;18593;51.426;7.030;2023-01-08T01:49:09;99418.50;;;11.34;65.10
32081;BME280;18593;51.426;7.030;2023-01-08T01:51:40;99420.13;;;11.35;65.39
32081;BME280;18593;51.426;7.030;2023-01-08T01:54:10;99429.72;;;11.37;65.30
32081;BME280;18593;51.426;7.030;2023-01-08T01:56:38;99426.25;;;11.36;65.61
32081;BME280;18593;51.426;7.030;2023-01-08T01:59:05;99425.53;;;11.41;65.79
32081;BME280;18593;51.426;7.030;2023-01-08T02:01:33;99417.31;;;11.42;65.84
32081;BME280;18593;51.426;7.030;2023-01-08T02:04:00;99423.44;;;11.43;66.17
32081;BME280;18593;51.426;7.030;2023-01-08T02:06:36;99427.06;;;11.37;66.42
32081;BME280;18593;51.426;7.030;2023-01-08T02:09:13;99415.59;;;11.36;66.55
32081;BME280;18593;51.426;7.030;2023-01-08T02:11:48;99411.03;;;11.37;67.00
32081;BME280;18593;51.426;7.030;2023-01-08T02:14:41;99404.44;;;11.39;66.89
32081;BME280;18593;51.426;7.030;2023-01-08T02:17:16;99410.03;;;11.38;67.29
32081;BME280;18593;51.426;7.030;2023-01-08T02:19:50;99406.28;;;11.39;67.39
32081;BME280;18593;51.426;7.030;2023-01-08T02:22:33;99400.44;;;11.42;67.06
32081;BME280;18593;51.426;7.030;2023-01-08T02:25:09;99398.84;;;11.41;67.22
32081;BME280;18593;51.426;7.030;2023-01-08T02:27:41;99410.09;;;11.43;67.30
32081;BME280;18593;51.426;7.030;2023-01-08T02:30:11;99392.44;;;11.42;67.34
32081;BME280;18593;51.426;7.030;2023-01-08T02:32:40;99392.94;;;11.39;67.37
32081;BME280;18593;51.426;7.030;2023-01-08T02:35:09;99393.03;;;11.44;67.21
32081;BME280;18593;51.426;7.030;2023-01-08T02:37:36;99384.34;;;11.37;67.26
32081;BME280;18593;51.426;7.030;2023-01-08T02:40:14;99376.34;;;11.37;67.25
32081;BME280;18593;51.426;7.030;2023-01-08T02:42:52;99374.81;;;11.41;67.25
32081;BME280;18593;51.426;7.030;2023-01-08T02:45:30;99369.53;;;11.46;67.10
32081;BME280;18593;51.426;7.030;2023-01-08T02:48:08;99366.00;;;11.40;67.19
32081;BME280;18593;51.426;7.030;2023-01-08T02:50:42;99358.56;;;11.42;67.14
32081;BME280;18593;51.426;7.030;2023-01-08T02:53:14;99350.06;;;11.45;66.98
32081;BME280;18593;51.426;7.030;2023-01-08T02:55:54;99345.78;;;11.44;67.25
32081;BME280;18593;51.426;7.030;2023-01-08T02:58:26;99346.09;;;11.48;67.25
32081;BME280;18593;51.426;7.030;2023-01-08T03:00:55;99335.91;;;11.45;67.04
32081;BME280;18593;51.426;7.030;2023-01-08T03:03:26;99330.31;;;11.46;67.17
32081;BME280;18593;51.426;7.030;2023-01-08T03:05:57;99327.63;;;11.46;67.43
32081;BME280;18593;51.426;7.030;2023-01-08T03:08:26;99322.00;;;11.43;67.14
32081;BME280;18593;51.426;7.030;2023-01-08T03:10:59;99324.16;;;11.46;67.58
32081;BME280;18593;51.426;7.030;2023-01-08T03:13:36;99321.75;;;11.44;66.97
32081;BME280;18593;51.426;7.030;2023-01-08T03:16:09;99315.34;;;11.45;67.07
32081;BME280;18593;51.426;7.030;2023-01-08T03:18:45;99312.34;;;11.42;67.15
32081;BME280;18593;51.426;7.030;2023-01-08T03:21:15;99311.53;;;11.41;67.32
32081;BME280;18593;51.426;7.030;2023-01-08T03:23:44;99315.53;;;11.39;67.25
32081;BME280;18593;51.426;7.030;2023-01-08T03:26:16;99310.91;;;11.34;67.36
32081;BME280;18593;51.426;7.030;2023-01-08T03:28:50;99310.13;;;11.33;67.20
32081;BME280;18593;51.426;7.030;2023-01-08T03:31:18;99310.66;;;11.35;67.67
32081;BME280;18593;51.426;7.030;2023-01-08T03:33:46;99301.59;;;11.37;67.33
32081;BME280;18593;51.426;7.030;2023-01-08T03:36:17;99299.50;;;11.39;67.69
32081;BME280;18593;51.426;7.030;2023-01-08T03:38:49;99289.97;;;11.43;67.64
32081;BME280;18593;51.426;7.030;2023-01-08T03:41:20;99303.53;;;11.41;67.12
32081;BME280;18593;51.426;7.030;2023-01-08T03:43:49;99305.41;;;11.41;67.24
32081;BME280;18593;51.426;7.030;2023-01-08T03:46:22;99307.59;;;11.44;67.57
32081;BME280;18593;51.426;7.030;2023-01-08T03:48:51;99308.16;;;11.46;67.41
32081;BME280;18593;51.426;7.030;2023-01-08T03:51:18;99306.78;;;11.43;67.61
32081;BME280;18593;51.426;7.030;2023-01-08T03:53:46;99304.91;;;11.44;67.53
32081;BME280;18593;51.426;7.030;2023-01-08T03:56:14;99310.81;;;11.46;67.46
32081;BME280;18593;51.426;7.030;2023-01-08T03:58:41;99295.03;;;11.44;67.52
32081;BME280;18593;51.426;7.030;2023-01-08T04:01:10;99292.63;;;11.43;67.77
32081;BME280;18593;51.426;7.030;2023-01-08T04:03:37;99293.38;;;11.38;67.80
32081;BME280;18593;51.426;7.030;2023-01-08T04:06:04;99296.03;;;11.38;67.79
32081;BME280;18593;51.426;7.030;2023-01-08T04:08:32;99293.59;;;11.37;67.79
32081;BME280;18593;51.426;7.030;2023-01-08T04:10:59;99292.06;;;11.41;67.82
32081;BME280;18593;51.426;7.030;2023-01-08T04:13:26;99293.66;;;11.42;67.57
32081;BME280;18593;51.426;7.030;2023-01-08T04:15:53;99297.09;;;11.37;68.02
32081;BME280;18593;51.426;7.030;2023-01-08T04:18:21;99286.41;;;11.37;67.98
32081;BME280;18593;51.426;7.030;2023-01-08T04:20:48;99295.16;;;11.32;67.92
32081;BME280;18593;51.426;7.030;2023-01-08T04:23:15;99294.09;;;11.33;68.06
32081;BME280;18593;51.426;7.030;2023-01-08T04:25:43;99287.16;;;11.32;67.84
32081;BME280;18593;51.426;7.030;2023-01-08T04:28:10;99283.97;;;11.35;68.02
32081;BME280;18593;51.426;7.030;2023-01-08T04:30:37;99283.97;;;11.35;67.94
32081;BME280;18593;51.426;7.030;2023-01-08T04:33:04;99275.16;;;11.35;67.92
32081;BME280;18593;51.426;7.030;2023-01-08T04:35:33;99280.75;;;11.33;68.05
32081;BME280;18593;51.426;7.030;2023-01-08T04:38:00;99281.56;;;11.34;68.18
32081;BME280;18593;51.426;7.030;2023-01-08T04:40:27;99278.00;;;11.28;68.51
32081;BME280;18593;51.426;7.030;2023-01-08T04:42:54;99274.84;;;11.31;68.44
32081;BME280;18593;51.426;7.030;2023-01-08T04:45:21;99273.22;;;11.30;68.64
32081;BME280;18593;51.426;7.030;2023-01-08T04:47:55;99269.28;;;11.33;68.85
32081;BME280;18593;51.426;7.030;2023-01-08T04:50:22;99264.97;;;11.32;68.80
32081;BME280;18593;51.426;7.030;2023-01-08T04:52:50;99275.91;;;11.30;68.93
32081;BME280;18593;51.426;7.030;2023-01-08T04:55:18;99267.63;;;11.32;68.79
32081;BME280;18593;51.426;7.030;2023-01-08T04:57:45;99261.25;;;11.33;68.67
32081;BME280;18593;51.426;7.030;2023-01-08T05:00:14;99253.25;;;11.33;68.45
32081;BME280;18593;51.426;7.030;2023-01-08T05:02:41;99245.53;;;11.37;68.52
32081;BME280;18593;51.426;7.030;2023-01-08T05:05:09;99246.13;;;11.39;68.24
32081;BME280;18593;51.426;7.030;2023-01-08T05:07:36;99227.75;;;11.42;68.01
32081;BME280;18593;51.426;7.030;2023-01-08T05:10:06;99233.56;;;11.39;67.93
32081;BME280;18593;51.426;7.030;2023-01-08T05:12:33;99238.91;;;11.39;67.80
32081;BME280;18593;51.426;7.030;2023-01-08T05:15:01;99251.19;;;11.40;67.56
32081;BME280;18593;51.426;7.030;2023-01-08T05:17:28;99246.94;;;11.39;67.82
32081;BME280;18593;51.426;7.030;2023-01-08T05:19:55;99252.81;;;11.41;67.51
32081;BME280;18593;51.426;7.030;2023-01-08T05:22:22;99253.94;;;11.45;67.44
32081;BME280;18593;51.426;7.030;2023-01-08T05:24:49;99247.00;;;11.44;67.10
32081;BME280;18593;51.426;7.030;2023-01-08T05:27:18;99243.72;;;11.37;67.49
32081;BME280;18593;51.426;7.030;2023-01-08T05:29:45;99242.06;;;11.36;67.71
32081;BME280;18593;51.426;7.030;2023-01-08T05:32:15;99241.25;;;11.35;67.59
32081;BME280;18593;51.426;7.030;2023-01-08T05:34:43;99241.34;;;11.41;67.44
32081;BME280;18593;51.426;7.030;2023-01-08T05:37:11;99240.28;;;11.42;67.33
32081;BME280;18593;51.426;7.030;2023-01-08T05:39:38;99236.56;;;11.43;67.27
32081;BME280;18593;51.426;7.030;2023-01-08T05:42:05;99238.13;;;11.39;67.09
32081;BME280;18593;51.426;7.030;2023-01-08T05:44:33;99228.25;;;11.39;67.33
32081;BME280;18593;51.426;7.030;2023-01-08T05:47:00;99231.16;;;11.38;67.59
32081;BME280;18593;51.426;7.030;2023-01-08T05:49:27;99234.94;;;11.42;66.98
32081;BME280;18593;51.426;7.030;2023-01-08T05:51:55;99231.97;;;11.38;67.07
32081;BME280;18593;51.426;7.030;2023-01-08T05:54:22;99236.00;;;11.41;67.28
32081;BME280;18593;51.426;7.030;2023-01-08T05:56:49;99235.78;;;11.42;67.03
32081;BME280;18593;51.426;7.030;2023-01-08T05:59:16;99232.84;;;11.44;67.08
32081;BME280;18593;51.426;7.030;2023-01-08T06:01:44;99231.78;;;11.45;66.54
32081;BME280;18593;51.426;7.030;2023-01-08T06:04:11;99230.66;;;11.41;66.42
32081;BME280;18593;51.426;7.030;2023-01-08T06:06:39;99230.66;;;11.41;66.86
32081;BME280;18593;51.426;7.030;2023-01-08T06:09:06;99234.44;;;11.45;66.67
32081;BME280;18593;51.426;7.030;2023-01-08T06:11:33;99236.63;;;11.48;66.51
32081;BME280;18593;51.426;7.030;2023-01-08T06:14:01;99230.97;;;11.44;66.43
32081;BME280;18593;51.426;7.030;2023-01-08T06:16:28;99233.09;;;11.42;66.42
32081;BME280;18593;51.426;7.030;2023-01-08T06:18:56;99232.84;;;11.44;66.43
32081;BME280;18593;51.426;7.030;2023-01-08T06:21:23;99230.66;;;11.41;66.38
32081;BME280;18593;51.426;7.030;2023-01-08T06:23:50;99223.78;;;11.45;66.50
32081;BME280;18593;51.426;7.030;2023-01-08T06:26:17;99229.09;;;11.45;66.36
32081;BME280;18593;51.426;7.030;2023-01-08T06:28:44;99225.88;;;11.43;66.53
32081;BME280;18593;51.426;7.030;2023-01-08T06:31:11;99222.91;;;11.39;66.58
32081;BME280;18593;51.426;7.030;2023-01-08T06:33:39;99227.44;;;11.39;66.50
32081;BME280;18593;51.426;7.030;2023-01-08T06:36:08;99223.72;;;11.40;66.39
32081;BME280;18593;51.426;7.030;2023-01-08T06:38:36;99221.34;;;11.43;66.65
32081;BME280;18593;51.426;7.030;2023-01-08T06:41:04;99223.28;;;11.48;66.44
32081;BME280;18593;51.426;7.030;2023-01-08T06:43:32;99220.03;;;11.46;66.06
32081;BME280;18593;51.426;7.030;2023-01-08T06:45:59;99223.44;;;11.41;66.12
32081;BME280;18593;51.426;7.030;2023-01-08T06:48:27;99221.34;;;11.43;66.18
32081;BME280;18593;51.426;7.030;2023-01-08T06:50:54;99227.19;;;11.40;65.90
32081;BME280;18593;51.426;7.030;2023-01-08T06:53:23;99235.44;;;11.39;65.91
32081;BME280;18593;51.426;7.030;2023-01-08T06:55:50;99240.03;;;11.43;66.10
32081;BME280;18593;51.426;7.030;2023-01-08T06:58:24;99260.59;;;11.43;66.74
32081;BME280;18593;51.426;7.030;2023-01-08T07:00:51;99293.13;;;11.40;67.51
32081;BME280;18593;51.426;7.030;2023-01-08T07:03:18;99278.09;;;11.33;68.26
32081;BME280;18593;51.426;7.030;2023-01-08T07:05:46;99292.66;;;11.09;68.57
32081;BME280;18593;51.426;7.030;2023-01-08T07:08:16;99303.34;;;11.09;68.86
32081;BME280;18593;51.426;7.030;2023-01-08T07:10:45;99299.19;;;11.01;69.20
32081;BME280;18593;51.426;7.030;2023-01-08T07:13:12;99299.47;;;11.00;69.25
32081;BME280;18593;51.426;7.030;2023-01-08T07:15:41;99288.88;;;11.05;69.35
32081;BME280;18593;51.426;7.030;2023-01-08T07:18:10;99299.06;;;11.08;69.17
32081;BME280;18593;51.426;7.030;2023-01-08T07:20:37;99280.69;;;11.12;69.02
32081;BME280;18593;51.426;7.030;2023-01-08T07:23:08;99294.34;;;11.15;68.95
32081;BME280;18593;51.426;7.030;2023-01-08T07:25:35;99292.16;;;11.12;68.54
32081;BME280;18593;51.426;7.030;2023-01-08T07:28:04;99303.66;;;11.13;68.55
32081;BME280;18593;51.426;7.030;2023-01-08T07:30:32;99289.81;;;11.16;68.46
32081;BME280;18593;51.426;7.030;2023-01-08T07:33:00;99300.16;;;11.12;67.92
32081;BME280;18593;51.426;7.030;2023-01-08T07:35:27;99310.53;;;11.08;67.82
32081;BME280;18593;51.426;7.030;2023-01-08T07:37:55;99312.31;;;11.03;67.82
32081;BME280;18593;51.426;7.030;2023-01-08T07:40:22;99319.28;;;11.04;67.78
32081;BME280;18593;51.426;7.030;2023-01-08T07:42:57;99320.34;;;11.03;67.38
32081;BME280;18593;51.426;7.030;2023-01-08T07:45:26;99314.41;;;11.01;67.26
32081;BME280;18593;51.426;7.030;2023-01-08T07:47:55;99312.31;;;11.03;67.42
32081;BME280;18593;51.426;7.030;2023-01-08T07:50:22;99314.41;;;11.01;67.34
32081;BME280;18593;51.426;7.030;2023-01-08T07:52:49;99311.25;;;11.04;67.39
32081;BME280;18593;51.426;7.030;2023-01-08T07:55:16;99318.47;;;11.03;67.06
32081;BME280;18593;51.426;7.030;2023-01-08T07:57:43;99318.22;;;11.05;67.01
32081;BME280;18593;51.426;7.030;2023-01-08T08:00:11;99317.41;;;11.04;66.76
32081;BME280;18593;51.426;7.030;2023-01-08T08:02:41;99308.59;;;11.04;66.69
32081;BME280;18593;51.426;7.030;2023-01-08T08:05:08;99302.94;;;11.00;66.56
32081;BME280;18593;51.426;7.030;2023-01-08T08:07:36;99300.66;;;10.92;66.35
32081;BME280;18593;51.426;7.030;2023-01-08T08:10:04;99298.50;;;10.89;66.38
32081;BME280;18593;51.426;7.030;2023-01-08T08:12:31;99295.03;;;10.89;66.61
32081;BME280;18593;51.426;7.030;2023-01-08T08:14:58;99295.91;;;10.94;66.05
32081;BME280;18593;51.426;7.030;2023-01-08T08:17:26;99304.47;;;10.96;65.81
32081;BME280;18593;51.426;7.030;2023-01-08T08:19:54;99290.56;;;10.94;65.83
32081;BME280;18593;51.426;7.030;2023-01-08T08:22:21;99291.94;;;10.97;65.68
32081;BME280;18593;51.426;7.030;2023-01-08T08:24:48;99281.03;;;10.98;65.75
32081;BME280;18593;51.426;7.030;2023-01-08T08:27:15;99281.84;;;10.99;65.45
32081;BME280;18593;51.426;7.030;2023-01-08T08:29:42;99278.59;;;10.97;65.05
32081;BME280;18593;51.426;7.030;2023-01-08T08:32:10;99282.31;;;10.96;65.32
32081;BME280;18593;51.426;7.030;2023-01-08T08:34:37;99282.06;;;10.97;64.77
32081;BME280;18593;51.426;7.030;2023-01-08T08:37:05;99278.50;;;10.92;64.56
32081;BME280;18593;51.426;7.030;2023-01-08T08:39:33;99281.69;;;10.89;64.78
32081;BME280;18593;51.426;7.030;2023-01-08T08:42:00;99284.56;;;10.87;64.60
32081;BME280;18593;51.426;7.030;2023-01-08T08:44:28;99288.63;;;10.90;64.28
32081;BME280;18593;51.426;7.030;2023-01-08T08:46:55;99286.00;;;10.78;64.01
32081;BME280;18593;51.426;7.030;2023-01-08T08:49:22;99281.75;;;10.77;64.14
32081;BME280;18593;51.426;7.030;2023-01-08T08:51:49;99280.94;;;10.76;64.33
32081;BME280;18593;51.426;7.030;2023-01-08T08:54:19;99276.41;;;10.77;63.87
32081;BME280;18593;51.426;7.030;2023-01-08T08:56:47;99273.41;;;10.73;63.85
32081;BME280;18593;51.426;7.030;2023-01-08T08:59:14;99266.00;;;10.75;64.02
32081;BME280;18593;51.426;7.030;2023-01-08T09:01:41;99263.88;;;10.77;63.89
32081;BME280;18593;51.426;7.030;2023-01-08T09:04:08;99261.53;;;10.81;63.61
32081;BME280;18593;51.426;7.030;2023-01-08T09:06:35;99261.53;;;10.81;63.10
32081;BME280;18593;51.426;7.030;2023-01-08T09:09:03;99246.59;;;10.80;63.35
32081;BME280;18593;51.426;7.030;2023-01-08T09:11:31;99253.28;;;10.82;63.26
32081;BME280;18593;51.426;7.030;2023-01-08T09:13:59;99249.00;;;10.81;63.45
32081;BME280;18593;51.426;7.030;2023-01-08T09:16:26;99248.53;;;10.85;63.13
32081;BME280;18593;51.426;7.030;2023-01-08T09:18:53;99258.16;;;10.86;63.14
32081;BME280;18593;51.426;7.030;2023-01-08T09:21:20;99261.06;;;10.84;62.87
32081;BME280;18593;51.426;7.030;2023-01-08T09:23:47;99266.16;;;10.86;63.17
32081;BME280;18593;51.426;7.030;2023-01-08T09:26:15;99275.44;;;10.83;62.41
32081;BME280;18593;51.426;7.030;2023-01-08T09:28:43;99272.22;;;10.81;62.87
32081;BME280;18593;51.426;7.030;2023-01-08T09:31:10;99271.88;;;10.77;62.82
32081;BME280;18593;51.426;7.030;2023-01-08T09:33:37;99266.47;;;10.72;62.63
32081;BME280;18593;51.426;7.030;2023-01-08T09:36:08;99268.31;;;10.72;63.03
32081;BME280;18593;51.426;7.030;2023-01-08T09:38:36;99261.22;;;10.77;63.28
32081;BME280;18593;51.426;7.030;2023-01-08T09:41:06;99259.69;;;10.81;63.33
32081;BME280;18593;51.426;7.030;2023-01-08T09:43:39;99264.47;;;10.79;63.75
32081;BME280;18593;51.426;7.030;2023-01-08T09:46:11;99257.53;;;10.78;64.09
32081;BME280;18593;51.426;7.030;2023-01-08T09:48:40;99255.97;;;10.82;64.10
32081;BME280;18593;51.426;7.030;2023-01-08T09:51:08;99252.47;;;10.82;63.82
32081;BME280;18593;51.426;7.030;2023-01-08T09:53:36;99245.53;;;10.81;63.73
32081;BME280;18593;51.426;7.030;2023-01-08T09:56:05;99254.94;;;10.83;64.01
32081;BME280;18593;51.426;7.030;2023-01-08T09:58:37;99248.47;;;10.79;63.79
32081;BME280;18593;51.426;7.030;2023-01-08T10:01:05;99244.41;;;10.77;64.15
32081;BME280;18593;51.426;7.030;2023-01-08T10:03:38;99238.59;;;10.80;64.37
32081;BME280;18593;51.426;7.030;2023-01-08T10:06:09;99250.53;;;10.77;63.80
32081;BME280;18593;51.426;7.030;2023-01-08T10:08:37;99244.66;;;10.75;63.83
32081;BME280;18593;51.426;7.030;2023-01-08T10:11:04;99242.31;;;10.79;63.50
32081;BME280;18593;51.426;7.030;2023-01-08T10:13:32;99230.00;;;10.78;63.49
32081;BME280;18593;51.426;7.030;2023-01-08T10:16:00;99226.06;;;10.80;64.13
32081;BME280;18593;51.426;7.030;2023-01-08T10:18:29;99220.19;;;10.78;63.93
32081;BME280;18593;51.426;7.030;2023-01-08T10:21:00;99221.53;;;10.81;64.08
32081;BME280;18593;51.426;7.030;2023-01-08T10:23:26;99221.88;;;10.85;64.17
32081;BME280;18593;51.426;7.030;2023-01-08T10:25:59;99222.50;;;10.92;64.07
32081;BME280;18593;51.426;7.030;2023-01-08T10:28:29;99221.75;;;10.96;63.87
32081;BME280;18593;51.426;7.030;2023-01-08T10:30:59;99215.28;;;10.92;64.07
32081;BME280;18593;51.426;7.030;2023-01-08T10:33:30;99206.75;;;10.90;63.73
32081;BME280;18593;51.426;7.030;2023-01-08T10:36:06;99195.50;;;10.88;62.96
32081;BME280;18593;51.426;7.030;2023-01-08T10:38:35;99198.41;;;10.87;63.23
32081;BME280;18593;51.426;7.030;2023-01-08T10:41:08;99187.81;;;10.92;63.43
32081;BME280;18593;51.426;7.030;2023-01-08T10:43:41;99178.28;;;10.96;63.68
32081;BME280;18593;51.426;7.030;2023-01-08T10:46:21;99174.06;;;11.00;64.10
32081;BME280;18593;51.426;7.030;2023-01-08T10:48:50;99166.31;;;10.98;62.69
32081;BME280;18593;51.426;7.030;2023-01-08T10:51:21;99167.34;;;10.97;62.82
32081;BME280;18593;51.426;7.030;2023-01-08T10:53:49;99167.59;;;10.96;63.00
32081;BME280;18593;51.426;7.030;2023-01-08T10:56:20;99155.88;;;10.97;62.81
32081;BME280;18593;51.426;7.030;2023-01-08T10:58:48;99144.16;;;10.98;63.01
32081;BME280;18593;51.426;7.030;2023-01-08T11:01:17;99142.78;;;10.95;63.03
32081;BME280;18593;51.426;7.030;2023-01-08T11:03:48;99133.91;;;10.90;62.60
32081;BME280;18593;51.426;7.030;2023-01-08T11:06:20;99135.53;;;10.91;62.53
32081;BME280;18593;51.426;7.030;2023-01-08T11:08:49;99131.81;;;10.92;62.37
32081;BME280;18593;51.426;7.030;2023-01-08T11:11:17;99129.94;;;10.92;63.12
32081;BME280;18593;51.426;7.030;2023-01-08T11:13:54;99125.13;;;10.89;62.94
32081;BME280;18593;51.426;7.030;2023-01-08T11:16:28;99118.41;;;10.87;62.81
32081;BME280;18593;51.426;7.030;2023-01-08T11:18:56;99118.41;;;10.87;63.18
32081;BME280;18593;51.426;7.030;2023-01-08T11:21:26;99110.41;;;10.87;63.13
32081;BME280;18593;51.426;7.030;2023-01-08T11:24:10;99113.31;;;10.85;63.07
32081;BME280;18593;51.426;7.030;2023-01-08T11:26:43;99099.56;;;10.93;63.41
32081;BME280;18593;51.426;7.030;2023-01-08T11:29:13;99100.84;;;10.91;63.44
32081;BME280;18593;51.426;7.030;2023-01-08T11:31:42;99094.78;;;10.95;63.81
32081;BME280;18593;51.426;7.030;2023-01-08T11:34:15;99096.13;;;10.98;63.40
32081;BME280;18593;51.426;7.030;2023-01-08T11:36:48;99092.97;;;11.01;63.31
32081;BME280;18593;51.426;7.030;2023-01-08T11:39:17;99084.50;;;11.04;63.39
32081;BME280;18593;51.426;7.030;2023-01-08T11:41:59;99082.13;;;11.07;63.93
32081;BME280;18593;51.426;7.030;2023-01-08T11:44:36;99073.63;;;11.11;63.42
32081;BME280;18593;51.426;7.030;2023-01-08T11:47:08;99070.41;;;11.08;63.65
32081;BME280;18593;51.426;7.030;2023-01-08T11:50:04;99061.88;;;11.12;62.61
32081;BME280;18593;51.426;7.030;2023-01-08T11:52:43;99057.28;;;11.07;63.20
32081;BME280;18593;51.426;7.030;2023-01-08T11:55:17;99050.19;;;11.13;63.32
32081;BME280;18593;51.426;7.030;2023-01-08T11:58:03;99044.00;;;11.12;62.65
32081;BME280;18593;51.426;7.030;2023-01-08T12:00:40;99030.66;;;11.12;63.43
32081;BME280;18593;51.426;7.030;2023-01-08T12:03:19;99026.72;;;11.15;62.84
32081;BME280;18593;51.426;7.030;2023-01-08T12:05:53;99024.84;;;11.15;62.72
32081;BME280;18593;51.426;7.030;2023-01-08T12:08:28;99018.72;;;11.15;63.04
32081;BME280;18593;51.426;7.030;2023-01-08T12:11:04;99020.06;;;11.17;62.87
32081;BME280;18593;51.426;7.030;2023-01-08T12:13:49;99014.72;;;11.17;63.23
32081;BME280;18593;51.426;7.030;2023-01-08T12:16:27;99008.84;;;11.15;62.94
32081;BME280;18593;51.426;7.030;2023-01-08T12:19:19;99005.56;;;11.08;63.29
32081;BME280;18593;51.426;7.030;2023-01-08T12:21:58;99009.28;;;11.07;63.32
32081;BME280;18593;51.426;7.030;2023-01-08T12:24:41;99017.84;;;11.09;63.92
32081;BME280;18593;51.426;7.030;2023-01-08T12:27:16;99031.72;;;11.11;63.61
32081;BME280;18593;51.426;7.030;2023-01-08T12:29:56;99056.38;;;10.96;65.85
32081;BME280;18593;51.426;7.030;2023-01-08T12:32:29;99054.00;;;10.78;65.03
32081;BME280;18593;51.426;7.030;2023-01-08T12:35:04;99059.22;;;10.68;65.58
32081;BME280;18593;51.426;7.030;2023-01-08T12:37:38;99049.59;;;10.67;65.50
32081;BME280;18593;51.426;7.030;2023-01-08T12:40:13;99045.66;;;10.69;65.91
32081;BME280;18593;51.426;7.030;2023-01-08T12:42:43;99046.25;;;10.76;65.85
32081;BME280;18593;51.426;7.030;2023-01-08T12:45:17;99032.72;;;10.83;66.05
32081;BME280;18593;51.426;7.030;2023-01-08T12:47:47;99041.13;;;10.92;66.23
32081;BME280;18593;51.426;7.030;2023-01-08T12:53:13;99031.56;;;10.96;67.69
32081;BME280;18593;51.426;7.030;2023-01-08T12:55:51;99028.09;;;10.95;67.60
32081;BME280;18593;51.426;7.030;2023-01-08T12:58:27;99026.78;;;10.98;67.50
32081;BME280;18593;51.426;7.030;2023-01-08T13:01:03;99027.78;;;10.92;67.79
32081;BME280;18593;51.426;7.030;2023-01-08T13:03:34;99024.31;;;10.91;67.93
32081;BME280;18593;51.426;7.030;2023-01-08T13:06:09;99019.53;;;10.93;67.81
32081;BME280;18593;51.426;7.030;2023-01-08T13:08:38;99019.03;;;10.96;67.49
32081;BME280;18593;51.426;7.030;2023-01-08T13:11:07;99017.91;;;10.92;67.83
32081;BME280;18593;51.426;7.030;2023-01-08T13:13:35;99014.22;;;10.93;68.05
32081;BME280;18593;51.426;7.030;2023-01-08T13:16:16;99007.81;;;10.94;67.80